createdAt,value
2024-02-21T00:10:44.233Z,2.80
2024-02-21T00:25:46.942Z,2.80
2024-02-21T00:40:49.198Z,2.80
2024-02-21T00:55:51.892Z,2.90
2024-02-21T01:10:54.251Z,2.90
2024-02-21T01:25:57.313Z,2.90
2024-02-21T01:40:59.863Z,2.80
2024-02-21T01:56:02.714Z,2.80
2024-02-21T02:11:05.663Z,2.80
2024-02-21T02:26:08.664Z,2.80
2024-02-21T02:41:10.638Z,2.80
2024-02-21T02:56:17.215Z,2.70
2024-02-21T03:11:19.848Z,2.80
2024-02-21T03:26:22.013Z,2.70
2024-02-21T03:41:24.323Z,2.70
2024-02-21T03:56:26.334Z,2.70
2024-02-21T04:11:28.421Z,2.70
2024-02-21T04:26:30.437Z,2.70
2024-02-21T04:41:32.631Z,2.70
2024-02-21T04:56:35.650Z,2.70
2024-02-21T05:11:39.142Z,2.60
2024-02-21T05:26:41.225Z,2.30
2024-02-21T05:41:43.783Z,2.10
2024-02-21T05:56:47.535Z,2.10
2024-02-21T06:11:50.521Z,2.20
2024-02-21T06:26:52.866Z,2.30
2024-02-21T06:41:55.568Z,2.40
2024-02-21T06:56:58.184Z,2.50
2024-02-21T07:12:00.751Z,2.60
2024-02-21T07:27:06.069Z,2.80
2024-02-21T07:42:08.371Z,3.00
2024-02-21T07:57:10.410Z,3.20
2024-02-21T08:12:12.509Z,3.30
2024-02-21T08:27:14.478Z,3.40
2024-02-21T08:42:16.932Z,3.60
2024-02-21T08:57:20.316Z,4.00
2024-02-21T09:12:22.585Z,4.60
2024-02-21T09:27:24.848Z,5.00
2024-02-21T09:42:43.169Z,5.20
2024-02-21T09:57:46.460Z,5.40
2024-02-21T10:12:52.930Z,5.60
2024-02-21T10:27:56.570Z,5.70
2024-02-21T10:43:00.534Z,5.80
2024-02-21T10:58:03.872Z,5.80
2024-02-21T11:13:09.563Z,6.00
2024-02-21T11:28:12.475Z,6.20
2024-02-21T11:43:16.153Z,6.20
2024-02-21T11:58:18.677Z,6.30
2024-02-21T12:13:24.438Z,6.40
2024-02-21T12:28:27.685Z,6.30
2024-02-21T12:43:30.620Z,6.10
2024-02-21T12:58:33.298Z,5.90
2024-02-21T13:13:35.574Z,5.80
2024-02-21T13:28:37.553Z,5.70
2024-02-21T13:43:39.522Z,5.80
2024-02-21T13:58:41.839Z,5.80
2024-02-21T14:13:44.267Z,5.90
2024-02-21T14:28:47.236Z,5.70
2024-02-21T14:43:49.390Z,5.70
2024-02-21T14:58:54.724Z,5.60
2024-02-21T15:13:58.256Z,5.60
2024-02-21T15:29:00.403Z,5.50
2024-02-21T15:44:02.884Z,5.40
2024-02-21T15:59:06.401Z,5.30
2024-02-21T16:14:08.644Z,5.10
2024-02-21T16:29:11.095Z,4.90
2024-02-21T16:44:13.543Z,4.60
2024-02-21T16:59:15.660Z,4.60
2024-02-21T17:14:17.838Z,4.40
2024-02-21T17:29:20.357Z,4.40
2024-02-21T17:44:23.362Z,4.30
2024-02-21T17:59:25.914Z,4.20
2024-02-21T18:14:27.951Z,4.00
2024-02-21T18:29:38.365Z,3.90
2024-02-21T18:44:42.056Z,3.80
2024-02-21T18:59:44.720Z,3.60
2024-02-21T19:14:47.188Z,3.50
2024-02-21T19:29:49.495Z,3.20
2024-02-21T19:44:51.467Z,3.00
2024-02-21T19:59:54.943Z,2.80
2024-02-21T20:14:57.256Z,2.60
2024-02-21T20:29:59.423Z,2.50
2024-02-21T20:45:02.790Z,2.40
2024-02-21T21:00:07.211Z,2.40
2024-02-21T21:15:09.929Z,2.30
2024-02-21T21:30:13.323Z,2.30
2024-02-21T21:45:15.734Z,2.10
2024-02-21T22:00:18.326Z,2.10
2024-02-21T22:15:20.807Z,2.00
2024-02-21T22:30:22.813Z,2.10
2024-02-21T22:45:24.824Z,2.00
2024-02-21T23:00:27.012Z,1.90
2024-02-21T23:15:29.610Z,1.80
2024-02-21T23:30:31.678Z,1.80
2024-02-21T23:45:35.373Z,1.70
